createdAt,value
2022-11-21T00:03:40.389Z,9.57
2022-11-21T00:08:42.083Z,10.40
2022-11-21T00:13:44.323Z,8.98
2022-11-21T00:18:46.039Z,10.48
2022-11-21T00:23:48.093Z,9.45
2022-11-21T00:28:49.815Z,10.00
2022-11-21T00:33:51.559Z,9.00
2022-11-21T00:38:53.256Z,9.13
2022-11-21T00:43:54.934Z,9.75
2022-11-21T00:48:56.674Z,8.70
2022-11-21T00:53:58.385Z,9.70
2022-11-21T00:59:00.097Z,8.53
2022-11-21T01:04:01.827Z,9.63
2022-11-21T01:09:04.081Z,8.85
2022-11-21T01:14:05.971Z,9.20
2022-11-21T01:19:07.701Z,9.13
2022-11-21T01:24:11.714Z,8.70
2022-11-21T01:29:13.390Z,8.57
2022-11-21T01:34:15.270Z,9.20
2022-11-21T01:39:16.976Z,9.18
2022-11-21T01:44:20.652Z,9.93
2022-11-21T01:49:25.564Z,9.35
2022-11-21T01:54:43.014Z,8.52
2022-11-21T02:00:17.034Z,8.37
2022-11-21T02:05:27.931Z,9.27
2022-11-21T02:10:29.666Z,8.97
2022-11-21T02:15:31.441Z,8.98
2022-11-21T02:20:33.322Z,8.27
2022-11-21T02:25:37.317Z,7.63
2022-11-21T02:30:41.041Z,8.77
2022-11-21T02:35:42.844Z,8.10
2022-11-21T02:40:53.576Z,7.53
2022-11-21T02:45:55.313Z,7.57
2022-11-21T02:50:56.996Z,7.68
2022-11-21T02:55:58.669Z,7.15
2022-11-21T03:01:00.622Z,6.25
2022-11-21T03:06:02.352Z,7.03
2022-11-21T03:11:04.072Z,7.03
2022-11-21T03:16:05.769Z,7.50
2022-11-21T03:21:07.480Z,7.38
2022-11-21T03:26:09.350Z,6.80
2022-11-21T03:31:11.086Z,6.53
2022-11-21T03:36:12.751Z,6.93
2022-11-21T03:41:14.486Z,6.45
2022-11-21T03:46:16.196Z,7.18
2022-11-21T03:51:19.055Z,6.75
2022-11-21T03:56:20.859Z,6.20
2022-11-21T04:01:23.074Z,6.57
2022-11-21T04:06:24.935Z,6.82
2022-11-21T04:11:26.640Z,7.27
2022-11-21T04:16:28.376Z,6.63
2022-11-21T04:21:30.214Z,6.35
2022-11-21T04:26:31.919Z,7.73
2022-11-21T04:31:33.622Z,6.72
2022-11-21T04:36:35.354Z,7.75
2022-11-21T04:41:37.356Z,6.63
2022-11-21T04:46:39.053Z,6.80
2022-11-21T04:51:40.751Z,6.20
2022-11-21T04:56:42.429Z,6.10
2022-11-21T05:01:44.139Z,5.20
2022-11-21T05:06:45.823Z,5.90
2022-11-21T05:11:47.558Z,5.75
2022-11-21T05:16:49.258Z,5.85
2022-11-21T05:21:50.954Z,6.40
2022-11-21T05:26:53.854Z,7.18
2022-11-21T05:31:55.922Z,6.27
2022-11-21T05:36:57.678Z,6.43
2022-11-21T05:42:02.948Z,6.43
2022-11-21T05:47:05.133Z,6.65
2022-11-21T05:52:06.815Z,6.10
2022-11-21T05:57:08.505Z,6.35
2022-11-21T06:02:10.200Z,11.60
2022-11-21T06:07:11.963Z,15.68
2022-11-21T06:12:13.683Z,17.08
2022-11-21T06:17:15.409Z,7.07
2022-11-21T06:22:17.120Z,5.93
2022-11-21T06:27:18.870Z,7.00
2022-11-21T06:32:20.631Z,6.40
2022-11-21T06:37:22.429Z,7.35
2022-11-21T06:42:24.207Z,7.45
2022-11-21T06:47:25.867Z,6.27
2022-11-21T06:52:27.583Z,5.75
2022-11-21T06:57:29.979Z,6.88
2022-11-21T07:02:31.753Z,6.40
2022-11-21T07:07:33.527Z,9.37
2022-11-21T07:12:35.774Z,9.10
2022-11-21T07:17:37.496Z,7.22
2022-11-21T07:22:39.541Z,7.32
2022-11-21T07:27:41.315Z,7.97
2022-11-21T07:32:42.977Z,7.30
2022-11-21T07:37:44.682Z,7.63
2022-11-21T07:42:46.565Z,6.78
2022-11-21T07:47:48.273Z,7.53
2022-11-21T07:52:49.933Z,7.00
2022-11-21T07:58:02.466Z,7.35
2022-11-21T08:03:05.191Z,7.35
2022-11-21T08:08:06.996Z,7.30
2022-11-21T08:13:08.792Z,6.10
2022-11-21T08:18:15.421Z,7.07
2022-11-21T08:23:17.162Z,8.18
2022-11-21T08:28:18.872Z,7.85
2022-11-21T08:33:20.552Z,8.03
2022-11-21T08:38:22.325Z,7.85
2022-11-21T08:43:23.997Z,7.45
2022-11-21T08:48:25.765Z,6.93
2022-11-21T08:53:27.482Z,8.40
2022-11-21T08:58:29.257Z,7.68
2022-11-21T09:03:31.631Z,8.10
2022-11-21T09:08:33.467Z,7.82
2022-11-21T09:13:36.019Z,7.97
2022-11-21T09:18:37.708Z,8.30
2022-11-21T09:23:39.399Z,8.27
2022-11-21T09:28:41.423Z,8.52
2022-11-21T09:33:43.204Z,8.90
2022-11-21T09:38:44.917Z,9.13
2022-11-21T09:44:02.202Z,8.77
2022-11-21T09:49:07.619Z,8.80
2022-11-21T09:54:19.671Z,8.88
2022-11-21T09:59:34.373Z,8.30
2022-11-21T10:04:36.118Z,7.50
2022-11-21T10:10:15.255Z,7.43
2022-11-21T10:15:43.223Z,7.55
2022-11-21T10:21:02.677Z,7.40
2022-11-21T10:26:33.957Z,6.93
2022-11-21T10:31:39.858Z,6.53
2022-11-21T10:36:46.231Z,6.15
2022-11-21T10:42:04.085Z,6.95
2022-11-21T10:47:19.993Z,7.43
2022-11-21T10:52:26.056Z,7.07
2022-11-21T10:57:28.750Z,6.72
2022-11-21T11:02:30.390Z,5.77
2022-11-21T11:07:32.337Z,7.10
2022-11-21T11:12:34.159Z,6.70
2022-11-21T11:17:35.898Z,6.53
2022-11-21T11:22:39.470Z,6.07
2022-11-21T11:27:41.273Z,6.20
2022-11-21T11:32:43.046Z,5.85
2022-11-21T11:37:56.595Z,5.47
2022-11-21T11:43:29.133Z,6.32
2022-11-21T11:48:30.967Z,5.53
2022-11-21T11:53:38.864Z,5.90
2022-11-21T11:58:58.346Z,5.87
2022-11-21T12:04:03.405Z,7.07
2022-11-21T12:09:40.447Z,5.85
2022-11-21T12:14:54.136Z,5.78
2022-11-21T12:19:58.300Z,5.45
2022-11-21T12:25:00.020Z,5.17
2022-11-21T12:30:38.675Z,5.50
2022-11-21T12:36:38.544Z,5.35
2022-11-21T12:42:00.264Z,6.00
2022-11-21T12:47:34.361Z,5.57
2022-11-21T12:52:54.044Z,7.15
2022-11-21T12:58:21.200Z,6.60
2022-11-21T13:03:44.289Z,6.25
2022-11-21T13:08:48.089Z,7.70
2022-11-21T13:13:58.399Z,7.85
2022-11-21T13:19:01.527Z,7.27
2022-11-21T13:24:03.300Z,8.40
2022-11-21T13:29:15.474Z,7.82
2022-11-21T13:34:32.224Z,7.63
2022-11-21T13:39:37.510Z,7.20
2022-11-21T13:44:40.006Z,6.57
2022-11-21T13:50:06.663Z,7.38
2022-11-21T13:55:36.153Z,6.38
2022-11-21T14:00:58.419Z,8.47
2022-11-21T14:06:39.789Z,8.93
2022-11-21T14:12:02.952Z,9.77
2022-11-21T14:17:14.261Z,9.40
2022-11-21T14:22:35.129Z,10.40
2022-11-21T14:27:45.178Z,9.40
2022-11-21T14:32:52.583Z,9.82
2022-11-21T14:37:57.771Z,9.27
2022-11-21T14:42:59.440Z,9.40
2022-11-21T14:48:01.159Z,9.40
2022-11-21T14:53:04.523Z,9.77
2022-11-21T14:58:06.384Z,9.45
2022-11-21T15:03:23.273Z,9.10
2022-11-21T15:19:28.354Z,10.50
2022-11-21T15:24:43.593Z,12.10
2022-11-21T15:29:45.471Z,13.38
2022-11-21T15:40:19.822Z,14.75
2022-11-21T15:45:26.316Z,16.55
2022-11-21T15:50:28.096Z,17.20
2022-11-21T15:55:30.346Z,18.35
2022-11-21T15:57:13.499Z,14.97
2022-11-21T16:00:32.042Z,17.40
2022-11-21T16:05:33.719Z,17.70
2022-11-21T16:10:35.549Z,17.70
2022-11-21T16:15:37.258Z,16.52
2022-11-21T16:20:39.022Z,15.17
2022-11-21T16:25:52.734Z,16.00
2022-11-21T16:30:54.472Z,15.88
2022-11-21T16:35:56.720Z,13.15
2022-11-21T16:41:03.489Z,15.65
2022-11-21T16:46:09.532Z,13.90
2022-11-21T16:51:15.450Z,14.98
2022-11-21T16:56:17.319Z,13.83
2022-11-21T17:01:21.735Z,14.13
2022-11-21T17:06:25.879Z,14.35
2022-11-21T17:11:29.571Z,13.95
2022-11-21T17:16:32.177Z,14.10
2022-11-21T17:21:34.343Z,14.45
2022-11-21T17:26:36.583Z,14.18
2022-11-21T17:31:38.329Z,14.82
2022-11-21T17:36:40.089Z,13.90
2022-11-21T17:41:41.794Z,14.73
2022-11-21T17:46:43.505Z,14.27
2022-11-21T17:51:46.108Z,14.05
2022-11-21T17:56:53.809Z,16.00
2022-11-21T18:01:58.333Z,16.33
2022-11-21T18:07:00.084Z,18.08
2022-11-21T18:12:01.872Z,16.98
2022-11-21T18:17:03.744Z,17.77
2022-11-21T18:22:05.465Z,17.92
2022-11-21T18:27:07.130Z,16.80
2022-11-21T18:32:08.815Z,17.77
2022-11-21T18:37:10.529Z,18.10
2022-11-21T18:42:12.255Z,17.70
2022-11-21T18:47:20.487Z,17.00
2022-11-21T18:52:22.706Z,17.37
2022-11-21T18:57:24.433Z,18.08
2022-11-21T19:02:26.112Z,17.80
2022-11-21T19:07:27.841Z,16.45
2022-11-21T19:12:29.565Z,17.80
2022-11-21T19:17:31.242Z,17.00
2022-11-21T19:22:32.921Z,17.20
2022-11-21T19:27:34.619Z,18.17
2022-11-21T19:32:36.280Z,16.23
2022-11-21T19:37:37.992Z,16.43
2022-11-21T19:42:39.762Z,16.65
2022-11-21T19:47:41.464Z,17.65
2022-11-21T19:52:43.249Z,18.60
2022-11-21T19:57:44.927Z,17.35
2022-11-21T20:02:46.733Z,17.83
2022-11-21T20:07:48.477Z,15.03
2022-11-21T20:12:50.340Z,15.55
2022-11-21T20:17:52.437Z,16.02
2022-11-21T20:22:54.214Z,13.43
2022-11-21T20:27:55.963Z,15.20
2022-11-21T20:32:57.694Z,14.80
2022-11-21T20:37:59.384Z,14.07
2022-11-21T20:43:01.052Z,14.23
2022-11-21T20:48:09.738Z,13.45
2022-11-21T20:58:44.147Z,13.50
2022-11-21T21:03:45.863Z,12.73
2022-11-21T21:08:48.182Z,13.23
2022-11-21T21:13:50.454Z,14.15
2022-11-21T21:18:53.467Z,12.93
2022-11-21T21:24:01.460Z,12.40
2022-11-21T21:29:04.089Z,12.32
2022-11-21T21:34:05.999Z,12.10
2022-11-21T21:39:07.741Z,11.23
2022-11-21T21:44:09.490Z,11.25
2022-11-21T21:49:11.886Z,11.77
2022-11-21T21:54:20.069Z,11.48
2022-11-21T21:59:22.019Z,11.60
2022-11-21T22:04:23.992Z,11.97
2022-11-21T22:09:25.791Z,12.60
2022-11-21T22:14:28.137Z,12.63
2022-11-21T22:19:30.706Z,12.87
2022-11-21T22:24:33.009Z,12.02
2022-11-21T22:29:34.845Z,13.40
2022-11-21T22:34:37.117Z,14.50
2022-11-21T22:39:38.838Z,14.27
2022-11-21T22:44:40.577Z,13.73
2022-11-21T22:49:42.566Z,14.20
2022-11-21T22:54:44.735Z,13.90
2022-11-21T22:59:46.556Z,14.37
2022-11-21T23:04:48.276Z,14.45
2022-11-21T23:09:50.038Z,14.00
2022-11-21T23:14:52.612Z,13.40
2022-11-21T23:19:54.333Z,13.47
2022-11-21T23:24:56.151Z,12.50
2022-11-21T23:29:57.880Z,11.55
2022-11-21T23:34:59.612Z,11.20
2022-11-21T23:40:01.332Z,9.52
2022-11-21T23:45:03.090Z,9.10
2022-11-21T23:50:05.793Z,8.60
2022-11-21T23:55:07.732Z,9.48
